Time;durP1;ratioP1;P1;durP2;ratioP2;P2;SDS_P1;SDS_P2;PMS_P1;PMS_P2;Temp;Humidity;BMP_temperature;BMP_pressure;BME280_temperature;BME280_humidity;BME280_pressure;Samples;Min_cycle;Max_cycle;Signal;HPM_P1;HPM_P2
2022/09/02 00:00:32;;;;;;;7.53;2.67;;;;;;;;;;5130820;27;21289;-69
2022/09/02 00:02:58;;;;;;;1.97;1.97;;;;;;;;;;5128111;27;20450;-69
2022/09/02 00:05:24;;;;;;;3.50;1.87;;;;;;;;;;5130490;27;20529;-68
2022/09/02 00:07:50;;;;;;;2.00;2.00;;;;;;;;;;5129487;28;20487;-67
2022/09/02 00:10:16;;;;;;;2.47;2.03;;;;;;;;;;5130211;28;20439;-67
2022/09/02 00:12:42;;;;;;;1.97;1.90;;;;;;;;;;5129349;28;20973;-68
2022/09/02 00:15:08;;;;;;;5.30;2.53;;;;;;;;;;5130108;28;20430;-68
2022/09/02 00:17:34;;;;;;;1.87;1.87;;;;;;;;;;5129649;27;20434;-69
2022/09/02 00:20:00;;;;;;;1.90;1.90;;;;;;;;;;5129534;28;20597;-68
2022/09/02 00:22:26;;;;;;;1.97;1.97;;;;;;;;;;5128891;28;20484;-69
2022/09/02 00:24:52;;;;;;;2.23;2.13;;;;;;;;;;5128593;28;21051;-69
2022/09/02 00:27:18;;;;;;;1.87;1.87;;;;;;;;;;5129726;27;20518;-68
2022/09/02 00:29:44;;;;;;;1.90;1.90;;;;;;;;;;5129838;28;20434;-69
2022/09/02 00:32:10;;;;;;;3.10;1.97;;;;;;;;;;5129231;27;20438;-70
2022/09/02 00:34:36;;;;;;;2.17;2.07;;;;;;;;;;5129317;28;20442;-69
2022/09/02 00:37:02;;;;;;;2.30;2.20;;;;;;;;;;5130029;28;20786;-69
2022/09/02 00:39:28;;;;;;;2.80;2.70;;;;;;;;;;5130171;28;20486;-69
2022/09/02 00:41:54;;;;;;;1.80;1.70;;;;;;;;;;5129515;28;20506;-68
2022/09/02 00:44:20;;;;;;;2.10;2.10;;;;;;;;;;5128759;27;20433;-68
2022/09/02 00:46:47;;;;;;;2.10;2.10;;;;;;;;;;5128446;28;20440;-67
2022/09/02 00:49:16;;;;;;;2.73;2.53;;;;;;;;;;5130368;28;20418;-69
2022/09/02 00:51:44;;;;;;;3.67;2.40;;;;;;;;;;5129832;28;20417;-67
2022/09/02 00:54:11;;;;;;;1.97;1.97;;;;;;;;;;5129511;28;20521;-69
2022/09/02 00:56:39;;;;;;;2.13;2.13;;;;;;;;;;5128416;27;20514;-70
2022/09/02 00:59:06;;;;;;;2.50;2.40;;;;;;;;;;5133834;27;20477;-69
2022/09/02 01:01:32;;;;;;;2.17;2.03;;;;;;;;;;5131638;27;20422;-69
2022/09/02 01:03:58;;;;;;;1.93;1.90;;;;;;;;;;5131523;27;20430;-69
2022/09/02 01:06:25;;;;;;;1.93;1.93;;;;;;;;;;5133264;27;20565;-69
2022/09/02 01:08:55;;;;;;;2.90;1.93;;;;;;;;;;5133573;27;20457;-70
2022/09/02 01:11:21;;;;;;;2.43;2.33;;;;;;;;;;5133601;27;20435;-69
2022/09/02 01:13:47;;;;;;;2.50;2.50;;;;;;;;;;5131588;27;20929;-67
2022/09/02 01:16:19;;;;;;;2.40;2.30;;;;;;;;;;5132415;27;20491;-69
2022/09/02 01:18:48;;;;;;;1.87;1.87;;;;;;;;;;5133572;27;20470;-69
2022/09/02 01:21:14;;;;;;;3.27;3.00;;;;;;;;;;5132600;27;20963;-70
2022/09/02 01:23:41;;;;;;;2.20;2.10;;;;;;;;;;5132778;27;20438;-68
2022/09/02 01:26:07;;;;;;;3.00;3.00;;;;;;;;;;5128954;27;20443;-68
2022/09/02 01:28:34;;;;;;;3.30;3.10;;;;;;;;;;5131173;27;20488;-68
2022/09/02 01:31:00;;;;;;;3.00;2.80;;;;;;;;;;5114058;27;20430;-70
2022/09/02 01:33:26;;;;;;;2.27;2.17;;;;;;;;;;5131895;27;20954;-69
2022/09/02 01:35:52;;;;;;;3.53;2.80;;;;;;;;;;5133197;27;20438;-70
2022/09/02 01:38:19;;;;;;;2.53;2.53;;;;;;;;;;5131170;27;20530;-68
2022/09/02 01:40:45;;;;;;;4.50;2.73;;;;;;;;;;5132056;27;20949;-68
2022/09/02 01:43:16;;;;;;;3.70;2.50;;;;;;;;;;5132110;27;20558;-68
2022/09/02 01:45:43;;;;;;;2.17;2.07;;;;;;;;;;5097122;27;20801;-70
2022/09/02 01:48:09;;;;;;;2.00;1.90;;;;;;;;;;5132245;27;20969;-69
2022/09/02 01:50:36;;;;;;;1.93;1.83;;;;;;;;;;5132329;27;20807;-69
2022/09/02 01:53:02;;;;;;;2.20;2.10;;;;;;;;;;5131885;27;20929;-69
2022/09/02 01:55:28;;;;;;;3.17;2.40;;;;;;;;;;5132690;27;20942;-69
2022/09/02 01:57:54;;;;;;;2.30;2.20;;;;;;;;;;5132102;27;20531;-68
2022/09/02 02:00:21;;;;;;;3.03;2.13;;;;;;;;;;5132112;27;20426;-67
2022/09/02 02:02:48;;;;;;;7.53;2.33;;;;;;;;;;5132123;27;20442;-69
2022/09/02 02:05:14;;;;;;;3.23;3.03;;;;;;;;;;5131269;27;20434;-70
2022/09/02 02:07:41;;;;;;;2.50;2.40;;;;;;;;;;5130377;27;20434;-69
2022/09/02 02:10:09;;;;;;;2.10;2.10;;;;;;;;;;5132625;27;20446;-70
2022/09/02 02:12:35;;;;;;;4.30;3.40;;;;;;;;;;5130120;27;20435;-69
2022/09/02 02:15:02;;;;;;;3.60;2.53;;;;;;;;;;5131539;27;20439;-69
2022/09/02 02:17:28;;;;;;;2.53;2.43;;;;;;;;;;5130423;27;20918;-68
2022/09/02 02:19:54;;;;;;;7.30;2.17;;;;;;;;;;5131991;27;20480;-70
2022/09/02 02:22:20;;;;;;;7.00;2.77;;;;;;;;;;5132174;27;20786;-69
2022/09/02 02:24:46;;;;;;;2.27;2.17;;;;;;;;;;5132401;27;20430;-68
2022/09/02 02:27:12;;;;;;;4.00;2.53;;;;;;;;;;5130356;27;20784;-67
2022/09/02 02:29:38;;;;;;;2.30;2.20;;;;;;;;;;5132172;27;20450;-69
2022/09/02 02:32:06;;;;;;;2.60;2.60;;;;;;;;;;5130885;27;20517;-69
2022/09/02 02:34:32;;;;;;;1.90;1.90;;;;;;;;;;5131127;27;20445;-68
2022/09/02 02:36:59;;;;;;;2.20;2.10;;;;;;;;;;5130852;27;20415;-67
2022/09/02 02:39:25;;;;;;;2.97;2.30;;;;;;;;;;5131788;27;20489;-68
2022/09/02 02:41:51;;;;;;;6.43;2.63;;;;;;;;;;5131123;27;20504;-69
2022/09/02 02:44:17;;;;;;;6.03;2.03;;;;;;;;;;5131717;27;20434;-69
2022/09/02 02:46:43;;;;;;;2.87;2.67;;;;;;;;;;5131142;27;21175;-69
2022/09/02 02:49:09;;;;;;;2.20;2.10;;;;;;;;;;5131853;27;20434;-69
2022/09/02 02:51:35;;;;;;;4.97;2.83;;;;;;;;;;5130582;27;20906;-69
2022/09/02 02:54:02;;;;;;;2.77;2.27;;;;;;;;;;5131667;27;20434;-69
2022/09/02 02:56:29;;;;;;;3.13;2.43;;;;;;;;;;5130941;27;20434;-69
2022/09/02 02:58:55;;;;;;;2.03;2.03;;;;;;;;;;5129960;27;20462;-68
2022/09/02 03:01:21;;;;;;;2.30;2.20;;;;;;;;;;5129999;27;20507;-69
2022/09/02 03:03:47;;;;;;;2.33;2.20;;;;;;;;;;5130823;27;20426;-69
2022/09/02 03:06:13;;;;;;;9.63;2.00;;;;;;;;;;5130954;27;20462;-69
2022/09/02 03:08:39;;;;;;;2.03;1.90;;;;;;;;;;5130917;27;20435;-69
2022/09/02 03:11:05;;;;;;;10.33;3.00;;;;;;;;;;5131285;27;20427;-69
2022/09/02 03:13:32;;;;;;;1.90;1.90;;;;;;;;;;5130733;27;20454;-69
2022/09/02 03:15:58;;;;;;;2.27;2.17;;;;;;;;;;5130154;27;20414;-70
2022/09/02 03:18:24;;;;;;;2.07;2.07;;;;;;;;;;5130934;27;20474;-69
2022/09/02 03:20:50;;;;;;;2.10;2.00;;;;;;;;;;5130428;27;20545;-68
2022/09/02 03:23:17;;;;;;;1.67;1.67;;;;;;;;;;5130629;27;20434;-69
2022/09/02 03:25:44;;;;;;;1.93;1.93;;;;;;;;;;5131081;27;20442;-70
2022/09/02 03:28:10;;;;;;;1.90;1.90;;;;;;;;;;5130487;27;20439;-69
2022/09/02 03:30:36;;;;;;;1.67;1.57;;;;;;;;;;5130531;27;21001;-69
2022/09/02 03:33:04;;;;;;;2.13;2.13;;;;;;;;;;5111663;27;20435;-67
2022/09/02 03:35:31;;;;;;;2.40;2.30;;;;;;;;;;5129125;27;20437;-69
2022/09/02 03:37:57;;;;;;;2.20;2.20;;;;;;;;;;5130651;27;20418;-68
2022/09/02 03:40:24;;;;;;;2.00;2.00;;;;;;;;;;5130678;27;20445;-68
2022/09/02 03:42:51;;;;;;;1.63;1.53;;;;;;;;;;5130353;27;20432;-68
2022/09/02 03:45:17;;;;;;;2.53;2.20;;;;;;;;;;5129791;27;20569;-68
2022/09/02 03:47:49;;;;;;;2.67;2.47;;;;;;;;;;5130387;27;20454;-70
2022/09/02 03:50:19;;;;;;;2.60;2.10;;;;;;;;;;5130531;27;20431;-69
2022/09/02 03:52:45;;;;;;;2.17;2.17;;;;;;;;;;5130032;27;20784;-69
2022/09/02 03:55:11;;;;;;;2.57;2.57;;;;;;;;;;5130442;27;20927;-67
2022/09/02 03:57:37;;;;;;;2.93;2.83;;;;;;;;;;5129315;27;20538;-68
2022/09/02 04:00:06;;;;;;;2.77;2.73;;;;;;;;;;5129301;27;21172;-69
2022/09/02 04:02:32;;;;;;;3.20;2.50;;;;;;;;;;5129750;27;20517;-69
2022/09/02 04:04:58;;;;;;;2.77;2.67;;;;;;;;;;5129635;27;20507;-68
2022/09/02 04:07:24;;;;;;;2.30;2.07;;;;;;;;;;5130131;27;20427;-69
2022/09/02 04:09:50;;;;;;;2.70;2.60;;;;;;;;;;5129738;27;20932;-67
2022/09/02 04:12:16;;;;;;;2.50;2.50;;;;;;;;;;5130365;27;20795;-69
2022/09/02 04:14:42;;;;;;;2.57;2.47;;;;;;;;;;5130003;28;20491;-69
2022/09/02 04:17:08;;;;;;;2.63;2.17;;;;;;;;;;5128502;28;20430;-69
2022/09/02 04:19:36;;;;;;;2.53;2.37;;;;;;;;;;5129762;28;20474;-70
2022/09/02 04:22:02;;;;;;;2.93;2.73;;;;;;;;;;5130240;28;20418;-68
2022/09/02 04:24:28;;;;;;;3.23;2.93;;;;;;;;;;5129555;28;20433;-68
2022/09/02 04:26:54;;;;;;;2.63;2.50;;;;;;;;;;5128922;28;20522;-67
2022/09/02 04:29:20;;;;;;;2.97;2.90;;;;;;;;;;5128989;28;20468;-68
2022/09/02 04:31:46;;;;;;;2.70;2.70;;;;;;;;;;5132597;27;20419;-67
2022/09/02 04:34:12;;;;;;;2.90;2.83;;;;;;;;;;5134094;27;21637;-68
2022/09/02 04:36:38;;;;;;;5.40;1.90;;;;;;;;;;5132051;27;20981;-69
2022/09/02 04:39:04;;;;;;;4.97;3.00;;;;;;;;;;5134153;27;20490;-70
2022/09/02 04:41:30;;;;;;;3.03;2.97;;;;;;;;;;5134592;27;20497;-68
2022/09/02 04:43:58;;;;;;;2.63;2.53;;;;;;;;;;5127847;27;20596;-67
2022/09/02 04:46:24;;;;;;;3.53;2.77;;;;;;;;;;5129603;27;20427;-69
2022/09/02 04:48:50;;;;;;;8.00;3.00;;;;;;;;;;5133169;27;20433;-69
2022/09/02 04:51:18;;;;;;;3.00;2.80;;;;;;;;;;5133062;27;20851;-69
2022/09/02 04:53:45;;;;;;;13.00;2.90;;;;;;;;;;5132625;27;20779;-67
2022/09/02 04:56:13;;;;;;;3.20;2.97;;;;;;;;;;5133223;27;20514;-68
2022/09/02 04:58:40;;;;;;;3.10;2.90;;;;;;;;;;5130244;27;20486;-68
2022/09/02 05:01:11;;;;;;;2.40;2.40;;;;;;;;;;5132201;27;20422;-69
2022/09/02 05:03:37;;;;;;;6.93;2.90;;;;;;;;;;5131992;27;20425;-67
2022/09/02 05:06:05;;;;;;;2.80;2.70;;;;;;;;;;5130933;27;20906;-69
2022/09/02 05:08:31;;;;;;;2.40;2.40;;;;;;;;;;5132279;27;20438;-67
2022/09/02 05:10:57;;;;;;;3.00;2.80;;;;;;;;;;5133092;27;20495;-68
2022/09/02 05:13:24;;;;;;;3.33;3.10;;;;;;;;;;5131859;27;20868;-68
2022/09/02 05:15:51;;;;;;;3.87;2.53;;;;;;;;;;5132910;27;20430;-70
2022/09/02 05:18:17;;;;;;;2.50;2.50;;;;;;;;;;5131140;27;20514;-66
2022/09/02 05:20:43;;;;;;;3.90;3.70;;;;;;;;;;5132669;27;20441;-68
2022/09/02 05:23:10;;;;;;;3.27;3.10;;;;;;;;;;5132314;27;20443;-68
2022/09/02 05:25:37;;;;;;;3.27;3.13;;;;;;;;;;5132378;27;20797;-69
2022/09/02 05:28:03;;;;;;;3.67;3.57;;;;;;;;;;5131899;27;20434;-67
2022/09/02 05:30:30;;;;;;;3.73;3.10;;;;;;;;;;5131852;27;20530;-67
2022/09/02 05:32:56;;;;;;;3.43;3.20;;;;;;;;;;5129803;27;20426;-67
2022/09/02 05:35:22;;;;;;;6.83;2.77;;;;;;;;;;5132482;27;20437;-70
2022/09/02 05:37:48;;;;;;;3.50;3.30;;;;;;;;;;5131811;27;20427;-69
2022/09/02 05:40:14;;;;;;;2.90;2.70;;;;;;;;;;5131499;27;20481;-70
2022/09/02 05:42:40;;;;;;;3.17;2.97;;;;;;;;;;5129849;27;20857;-69
2022/09/02 05:45:07;;;;;;;3.67;3.43;;;;;;;;;;5131355;27;20431;-67
2022/09/02 05:47:34;;;;;;;4.13;2.63;;;;;;;;;;5132089;27;20798;-67
2022/09/02 05:50:00;;;;;;;13.23;3.40;;;;;;;;;;5130060;27;20426;-69
2022/09/02 05:52:26;;;;;;;2.60;2.60;;;;;;;;;;5130247;27;20917;-69
2022/09/02 05:54:53;;;;;;;3.43;3.13;;;;;;;;;;5130548;27;20427;-69
2022/09/02 05:57:20;;;;;;;7.43;3.10;;;;;;;;;;5132010;27;20597;-67
2022/09/02 05:59:47;;;;;;;3.60;3.40;;;;;;;;;;5131531;27;20490;-68
2022/09/02 06:02:14;;;;;;;3.60;3.10;;;;;;;;;;5129617;27;20435;-67
2022/09/02 06:04:44;;;;;;;5.30;2.90;;;;;;;;;;5130617;27;20426;-69
2022/09/02 06:07:11;;;;;;;3.60;3.30;;;;;;;;;;5131463;27;20792;-69
2022/09/02 06:09:36;;;;;;;4.90;3.33;;;;;;;;;;5131109;27;20469;-69
2022/09/02 06:12:03;;;;;;;3.10;3.07;;;;;;;;;;5130178;27;22075;-70
2022/09/02 06:14:30;;;;;;;3.90;3.70;;;;;;;;;;5130803;27;20785;-70
2022/09/02 06:16:57;;;;;;;3.40;3.10;;;;;;;;;;5130874;27;20542;-67
2022/09/02 06:19:29;;;;;;;4.03;3.63;;;;;;;;;;5131519;27;20478;-68
2022/09/02 06:21:55;;;;;;;2.87;2.77;;;;;;;;;;5130881;27;20427;-69
2022/09/02 06:24:22;;;;;;;3.20;3.10;;;;;;;;;;5131533;27;20427;-70
2022/09/02 06:26:48;;;;;;;3.13;2.93;;;;;;;;;;5131379;27;20514;-69
2022/09/02 06:29:14;;;;;;;3.37;3.03;;;;;;;;;;5131711;27;20455;-68
2022/09/02 06:31:44;;;;;;;2.93;2.80;;;;;;;;;;5131589;27;20425;-68
2022/09/02 06:34:12;;;;;;;4.07;3.77;;;;;;;;;;5130797;27;20431;-68
2022/09/02 06:36:38;;;;;;;8.87;3.60;;;;;;;;;;5130515;27;20423;-67
2022/09/02 06:39:05;;;;;;;4.40;4.10;;;;;;;;;;5112463;27;21059;-70
2022/09/02 06:41:32;;;;;;;4.50;4.20;;;;;;;;;;5130168;27;20439;-67
2022/09/02 06:43:59;;;;;;;5.40;4.30;;;;;;;;;;5130226;27;21011;-69
2022/09/02 06:46:27;;;;;;;4.10;3.90;;;;;;;;;;5112438;27;20438;-71
2022/09/02 06:48:53;;;;;;;4.20;4.10;;;;;;;;;;5131496;27;20439;-68
2022/09/02 06:51:20;;;;;;;7.40;3.77;;;;;;;;;;5131788;27;20507;-68
2022/09/02 06:53:46;;;;;;;6.23;4.73;;;;;;;;;;5130726;27;20427;-69
2022/09/02 06:56:12;;;;;;;3.43;3.33;;;;;;;;;;5130606;27;20438;-69
2022/09/02 06:58:38;;;;;;;4.83;4.53;;;;;;;;;;5131119;27;20478;-70
2022/09/02 07:01:04;;;;;;;3.60;3.40;;;;;;;;;;5129867;27;20434;-69
2022/09/02 07:06:16;;;;;;;3.93;3.73;;;;;;;;;;5129991;27;20675;-70
2022/09/02 07:08:43;;;;;;;3.43;3.33;;;;;;;;;;5131145;27;20432;-69
2022/09/02 07:11:16;;;;;;;4.47;4.17;;;;;;;;;;5131510;27;20435;-70
2022/09/02 07:13:42;;;;;;;4.30;3.97;;;;;;;;;;5130946;27;20446;-67
2022/09/02 07:16:08;;;;;;;4.30;4.03;;;;;;;;;;5130222;27;20917;-70
2022/09/02 07:18:35;;;;;;;4.17;3.87;;;;;;;;;;5131206;27;20466;-70
2022/09/02 07:21:01;;;;;;;3.57;3.47;;;;;;;;;;5129182;27;20943;-69
2022/09/02 07:23:27;;;;;;;3.77;3.60;;;;;;;;;;5130603;27;20499;-69
2022/09/02 07:25:54;;;;;;;3.63;3.53;;;;;;;;;;5130294;27;20469;-70
2022/09/02 07:28:20;;;;;;;3.57;3.27;;;;;;;;;;5129749;27;20937;-70
2022/09/02 07:30:47;;;;;;;3.33;3.20;;;;;;;;;;5130673;27;20511;-70
2022/09/02 07:33:13;;;;;;;3.10;3.00;;;;;;;;;;5130796;27;20426;-69
2022/09/02 07:35:42;;;;;;;3.70;3.60;;;;;;;;;;5130340;27;20450;-70
2022/09/02 07:38:09;;;;;;;4.30;4.13;;;;;;;;;;5130114;27;20426;-69
2022/09/02 07:40:35;;;;;;;3.70;3.50;;;;;;;;;;5109435;27;20439;-70
2022/09/02 07:43:02;;;;;;;3.60;3.30;;;;;;;;;;5129486;27;20419;-69
2022/09/02 07:45:28;;;;;;;3.57;3.37;;;;;;;;;;5129669;27;20438;-68
2022/09/02 07:47:54;;;;;;;2.90;2.90;;;;;;;;;;5124648;27;20851;-68
2022/09/02 07:50:20;;;;;;;2.03;2.03;;;;;;;;;;5109367;27;20918;-67
2022/09/02 07:52:47;;;;;;;3.67;3.57;;;;;;;;;;5129006;27;20518;-68
2022/09/02 07:55:13;;;;;;;9.80;3.00;;;;;;;;;;5129519;27;20418;-69
2022/09/02 07:57:39;;;;;;;2.53;2.43;;;;;;;;;;5129789;27;20486;-68
2022/09/02 08:00:06;;;;;;;2.37;2.37;;;;;;;;;;5129686;27;20518;-67
2022/09/02 08:02:33;;;;;;;3.50;2.50;;;;;;;;;;5128090;27;20423;-69
2022/09/02 08:04:59;;;;;;;2.47;2.20;;;;;;;;;;5130527;27;20822;-67
2022/09/02 08:07:25;;;;;;;2.17;2.03;;;;;;;;;;5129431;27;20547;-67
2022/09/02 08:09:52;;;;;;;2.50;1.80;;;;;;;;;;5111790;27;20450;-68
2022/09/02 08:12:18;;;;;;;2.17;2.17;;;;;;;;;;5127459;27;20185;-69
2022/09/02 08:14:44;;;;;;;2.90;2.80;;;;;;;;;;5130518;28;20418;-69
2022/09/02 08:17:10;;;;;;;2.30;2.30;;;;;;;;;;5128054;28;20431;-69
2022/09/02 08:19:36;;;;;;;4.37;2.07;;;;;;;;;;5129846;28;20486;-68
2022/09/02 08:22:03;;;;;;;1.93;1.93;;;;;;;;;;5111096;28;20799;-68
2022/09/02 08:24:31;;;;;;;4.73;2.03;;;;;;;;;;5129502;28;20431;-68
2022/09/02 08:26:57;;;;;;;2.17;2.17;;;;;;;;;;5129268;28;20495;-68
2022/09/02 08:29:23;;;;;;;1.93;1.83;;;;;;;;;;5129353;28;20947;-68
2022/09/02 08:31:49;;;;;;;3.30;1.70;;;;;;;;;;5130143;28;20423;-69
2022/09/02 08:34:15;;;;;;;2.10;1.87;;;;;;;;;;5130128;28;20471;-67
2022/09/02 08:36:42;;;;;;;3.67;2.00;;;;;;;;;;5129860;28;20426;-67
2022/09/02 08:39:09;;;;;;;1.63;1.63;;;;;;;;;;5127672;28;21061;-68
2022/09/02 08:41:45;;;;;;;2.00;1.90;;;;;;;;;;5130014;28;20423;-69
2022/09/02 08:44:11;;;;;;;2.70;2.50;;;;;;;;;;5130030;28;20525;-69
2022/09/02 08:46:37;;;;;;;1.57;1.57;;;;;;;;;;5128527;28;20438;-69
2022/09/02 08:49:07;;;;;;;1.23;1.23;;;;;;;;;;5130135;28;20434;-68
2022/09/02 08:51:47;;;;;;;2.40;2.30;;;;;;;;;;5129440;28;20430;-68
2022/09/02 08:54:25;;;;;;;2.37;2.27;;;;;;;;;;5128971;28;20431;-68
2022/09/02 08:56:51;;;;;;;1.80;1.80;;;;;;;;;;5129088;28;20474;-69
2022/09/02 08:59:20;;;;;;;1.87;1.87;;;;;;;;;;5110523;28;20562;-69
2022/09/02 09:01:50;;;;;;;2.10;1.77;;;;;;;;;;5129501;28;20427;-68
2022/09/02 09:04:16;;;;;;;1.60;1.60;;;;;;;;;;5128683;28;20438;-68
2022/09/02 09:06:45;;;;;;;4.10;2.10;;;;;;;;;;5129135;28;20530;-69
2022/09/02 09:09:35;;;;;;;2.27;2.27;;;;;;;;;;5129820;28;20431;-68
2022/09/02 09:12:20;;;;;;;1.43;1.43;;;;;;;;;;5111084;28;20514;-68
2022/09/02 09:14:49;;;;;;;1.60;1.60;;;;;;;;;;5128265;28;20523;-68
2022/09/02 09:17:22;;;;;;;1.73;1.73;;;;;;;;;;5128859;27;20797;-69
2022/09/02 09:19:57;;;;;;;1.87;1.87;;;;;;;;;;5132831;27;20615;-69
2022/09/02 09:22:38;;;;;;;3.67;1.87;;;;;;;;;;5132880;27;20469;-68
2022/09/02 09:25:10;;;;;;;1.70;1.70;;;;;;;;;;5115040;27;20453;-67
2022/09/02 09:27:36;;;;;;;2.13;1.90;;;;;;;;;;5132299;27;20450;-69
2022/09/02 09:30:05;;;;;;;2.10;2.00;;;;;;;;;;5133446;27;20483;-68
2022/09/02 09:32:33;;;;;;;1.50;1.50;;;;;;;;;;5114362;27;20880;-69
2022/09/02 09:35:01;;;;;;;1.90;1.80;;;;;;;;;;5132912;27;20442;-69
2022/09/02 09:37:27;;;;;;;1.63;1.53;;;;;;;;;;5131451;27;20782;-69
2022/09/02 09:39:53;;;;;;;1.53;1.50;;;;;;;;;;5133159;27;20985;-69
2022/09/02 09:42:33;;;;;;;2.40;1.50;;;;;;;;;;5131928;27;20429;-68
2022/09/02 09:44:59;;;;;;;1.37;1.37;;;;;;;;;;5132258;27;21213;-67
2022/09/02 09:47:25;;;;;;;1.70;1.60;;;;;;;;;;5130384;27;20464;-67
2022/09/02 09:49:52;;;;;;;0.87;0.87;;;;;;;;;;5132913;27;20749;-68
2022/09/02 09:52:26;;;;;;;1.50;1.40;;;;;;;;;;5132474;27;20489;-67
2022/09/02 09:55:07;;;;;;;1.23;1.00;;;;;;;;;;5130762;27;20423;-69
2022/09/02 09:57:33;;;;;;;1.40;1.40;;;;;;;;;;5132630;27;20528;-68
2022/09/02 10:00:01;;;;;;;1.60;1.50;;;;;;;;;;5130294;27;20908;-68
2022/09/02 10:02:27;;;;;;;2.10;1.40;;;;;;;;;;5131026;27;20455;-69
2022/09/02 10:04:54;;;;;;;1.70;1.60;;;;;;;;;;5133000;27;20477;-68
2022/09/02 10:07:44;;;;;;;2.63;1.30;;;;;;;;;;5131454;27;20418;-67
2022/09/02 10:10:29;;;;;;;1.87;1.77;;;;;;;;;;5117676;27;20479;-67
2022/09/02 10:12:58;;;;;;;1.30;1.30;;;;;;;;;;5131565;27;20462;-69
2022/09/02 10:15:44;;;;;;;1.20;1.20;;;;;;;;;;5131617;27;20430;-68
2022/09/02 10:18:15;;;;;;;1.10;1.10;;;;;;;;;;5131188;27;20478;-68
2022/09/02 10:21:02;;;;;;;1.17;1.17;;;;;;;;;;5132244;27;20579;-69
2022/09/02 10:23:28;;;;;;;2.37;2.27;;;;;;;;;;5131207;27;20455;-68
2022/09/02 10:26:03;;;;;;;1.10;1.10;;;;;;;;;;5132002;27;21002;-69
2022/09/02 10:28:38;;;;;;;1.00;1.00;;;;;;;;;;5131509;27;20173;-67
2022/09/02 10:31:10;;;;;;;1.50;1.50;;;;;;;;;;5131810;27;20994;-67
2022/09/02 10:33:40;;;;;;;2.97;1.17;;;;;;;;;;5129412;27;20424;-69
2022/09/02 10:36:07;;;;;;;1.20;1.20;;;;;;;;;;5130464;27;20533;-68
2022/09/02 10:38:36;;;;;;;2.40;1.00;;;;;;;;;;5131728;27;20962;-67
2022/09/02 10:41:22;;;;;;;0.80;0.80;;;;;;;;;;5132718;27;20431;-68
2022/09/02 10:43:57;;;;;;;1.30;1.30;;;;;;;;;;5130953;27;20430;-67
2022/09/02 10:46:24;;;;;;;11.63;1.80;;;;;;;;;;5128987;27;20490;-68
2022/09/02 10:49:00;;;;;;;1.27;1.27;;;;;;;;;;5131547;27;20430;-69
2022/09/02 10:51:49;;;;;;;1.13;1.13;;;;;;;;;;5131854;27;20431;-68
2022/09/02 10:54:39;;;;;;;1.53;1.43;;;;;;;;;;5130992;27;20439;-68
2022/09/02 10:57:10;;;;;;;1.20;1.20;;;;;;;;;;5131056;27;20557;-69
2022/09/02 11:00:12;;;;;;;1.30;1.20;;;;;;;;;;5131220;27;20478;-68
2022/09/02 11:02:41;;;;;;;1.27;1.17;;;;;;;;;;5130494;27;20496;-67
2022/09/02 11:05:12;;;;;;;1.13;1.13;;;;;;;;;;5112086;27;20454;-69
2022/09/02 11:07:50;;;;;;;1.30;1.30;;;;;;;;;;5130786;27;20840;-69
2022/09/02 11:10:23;;;;;;;1.80;1.70;;;;;;;;;;5130860;27;20446;-69
2022/09/02 11:12:56;;;;;;;1.80;1.50;;;;;;;;;;5130893;27;20518;-70
2022/09/02 11:15:38;;;;;;;1.20;1.20;;;;;;;;;;5129332;27;20450;-67
2022/09/02 11:18:11;;;;;;;1.20;1.20;;;;;;;;;;5130021;27;20438;-68
2022/09/02 11:20:41;;;;;;;0.83;0.83;;;;;;;;;;5130366;27;20527;-69
2022/09/02 11:23:26;;;;;;;1.10;1.10;;;;;;;;;;5129822;27;20419;-69
2022/09/02 11:26:15;;;;;;;2.07;1.97;;;;;;;;;;5130750;27;20514;-69
2022/09/02 11:28:48;;;;;;;1.90;1.10;;;;;;;;;;5130052;27;20434;-69
2022/09/02 11:31:33;;;;;;;2.43;1.20;;;;;;;;;;5130100;27;20450;-69
2022/09/02 11:34:05;;;;;;;1.20;1.20;;;;;;;;;;5130697;27;20434;-68
2022/09/02 11:36:31;;;;;;;1.63;1.53;;;;;;;;;;5129872;27;20562;-68
2022/09/02 11:39:02;;;;;;;4.00;1.20;;;;;;;;;;5129987;27;20965;-69
2022/09/02 11:41:35;;;;;;;1.20;1.20;;;;;;;;;;5129162;27;20430;-67
2022/09/02 11:44:10;;;;;;;1.30;1.30;;;;;;;;;;5130560;27;20403;-69
2022/09/02 11:46:36;;;;;;;0.93;0.93;;;;;;;;;;5130234;27;20461;-68
2022/09/02 11:49:01;;;;;;;2.10;1.37;;;;;;;;;;5130478;27;20949;-68
2022/09/02 11:51:34;;;;;;;1.57;1.50;;;;;;;;;;5129795;27;20808;-69
2022/09/02 11:54:02;;;;;;;1.30;1.30;;;;;;;;;;5129478;27;20215;-68
2022/09/02 11:56:29;;;;;;;1.37;1.37;;;;;;;;;;5130360;27;20545;-69
2022/09/02 11:58:55;;;;;;;0.80;0.80;;;;;;;;;;5130009;27;20467;-70
2022/09/02 12:01:22;;;;;;;1.37;1.37;;;;;;;;;;5130308;27;20546;-67
2022/09/02 12:03:52;;;;;;;1.50;1.40;;;;;;;;;;5129373;27;20513;-69
2022/09/02 12:06:19;;;;;;;1.20;1.10;;;;;;;;;;5129162;27;20446;-67
2022/09/02 12:08:45;;;;;;;1.10;1.10;;;;;;;;;;5129671;27;20434;-67
2022/09/02 12:11:30;;;;;;;1.37;1.37;;;;;;;;;;5112384;27;20479;-68
2022/09/02 12:13:57;;;;;;;1.53;1.53;;;;;;;;;;5128997;28;20429;-69
2022/09/02 12:16:23;;;;;;;2.30;1.20;;;;;;;;;;5128648;28;20423;-67
2022/09/02 12:18:53;;;;;;;1.30;1.20;;;;;;;;;;5129836;28;22205;-67
2022/09/02 12:21:19;;;;;;;1.30;1.30;;;;;;;;;;5129939;28;20204;-69
2022/09/02 12:23:48;;;;;;;1.50;1.50;;;;;;;;;;5111467;28;20426;-68
2022/09/02 12:26:18;;;;;;;1.13;1.13;;;;;;;;;;5130038;28;20462;-68
2022/09/02 12:28:45;;;;;;;1.13;1.13;;;;;;;;;;5130320;28;20785;-68
2022/09/02 12:31:30;;;;;;;1.80;1.70;;;;;;;;;;5129415;28;20455;-68
2022/09/02 12:33:56;;;;;;;1.67;1.67;;;;;;;;;;5108813;28;20441;-67
2022/09/02 12:36:41;;;;;;;1.37;1.37;;;;;;;;;;5129062;28;20422;-68
2022/09/02 12:39:26;;;;;;;1.33;1.23;;;;;;;;;;5129992;28;20474;-68
2022/09/02 12:42:09;;;;;;;1.80;1.47;;;;;;;;;;5129903;28;20832;-68
2022/09/02 12:44:38;;;;;;;1.07;1.07;;;;;;;;;;5129611;28;20414;-67
2022/09/02 12:47:24;;;;;;;1.33;1.23;;;;;;;;;;5129908;28;20430;-67
2022/09/02 12:50:00;;;;;;;3.90;1.77;;;;;;;;;;5129523;28;20426;-68
2022/09/02 12:52:35;;;;;;;1.20;1.20;;;;;;;;;;5130815;27;20909;-68
2022/09/02 12:55:22;;;;;;;1.23;1.13;;;;;;;;;;5133453;27;20417;-68
2022/09/02 12:57:50;;;;;;;1.40;1.40;;;;;;;;;;5129753;27;20556;-70
2022/09/02 13:00:29;;;;;;;1.33;1.33;;;;;;;;;;5114431;27;20478;-70
2022/09/02 13:03:09;;;;;;;2.07;1.20;;;;;;;;;;5133503;27;20458;-70
2022/09/02 13:05:55;;;;;;;1.23;1.23;;;;;;;;;;5133609;27;20434;-70
2022/09/02 13:08:40;;;;;;;1.13;1.13;;;;;;;;;;5133956;27;20819;-70
2022/09/02 13:11:25;;;;;;;1.70;1.40;;;;;;;;;;5131718;27;20487;-70
2022/09/02 13:14:09;;;;;;;1.13;1.13;;;;;;;;;;5114879;27;20423;-70
2022/09/02 13:16:41;;;;;;;1.60;1.60;;;;;;;;;;5133975;27;20429;-70
2022/09/02 13:19:07;;;;;;;1.73;1.73;;;;;;;;;;5132078;27;20485;-70
2022/09/02 13:21:52;;;;;;;1.37;1.37;;;;;;;;;;5132385;27;20942;-70
2022/09/02 13:24:39;;;;;;;2.00;2.00;;;;;;;;;;5132634;27;20469;-71
2022/09/02 13:27:24;;;;;;;0.93;0.93;;;;;;;;;;5114758;27;20984;-70
2022/09/02 13:29:52;;;;;;;1.77;1.50;;;;;;;;;;5132012;27;20852;-71
2022/09/02 13:32:18;;;;;;;1.70;1.70;;;;;;;;;;5132435;27;20438;-71
2022/09/02 13:34:46;;;;;;;1.53;1.53;;;;;;;;;;5132231;27;20435;-70
2022/09/02 13:37:32;;;;;;;4.20;1.50;;;;;;;;;;5133080;27;20419;-70
2022/09/02 13:39:59;;;;;;;1.20;1.20;;;;;;;;;;5132325;27;20526;-69
2022/09/02 13:42:26;;;;;;;1.67;1.57;;;;;;;;;;5131255;27;20461;-70
2022/09/02 13:45:08;;;;;;;2.13;2.13;;;;;;;;;;5132987;27;21660;-71
2022/09/02 13:47:34;;;;;;;1.20;1.20;;;;;;;;;;5132540;27;20538;-70
2022/09/02 13:50:00;;;;;;;1.53;1.53;;;;;;;;;;5132811;27;20426;-70
2022/09/02 13:52:29;;;;;;;1.43;1.10;;;;;;;;;;5132079;27;20431;-70
2022/09/02 13:54:57;;;;;;;3.80;1.60;;;;;;;;;;5131943;27;20441;-70
2022/09/02 13:57:24;;;;;;;1.90;1.67;;;;;;;;;;5131274;27;20471;-70
2022/09/02 13:59:51;;;;;;;0.90;0.90;;;;;;;;;;5131355;27;20970;-69
2022/09/02 14:02:22;;;;;;;1.50;1.50;;;;;;;;;;5131831;27;20427;-69
2022/09/02 14:04:49;;;;;;;1.40;1.40;;;;;;;;;;5113303;27;20518;-68
2022/09/02 14:07:18;;;;;;;1.53;1.23;;;;;;;;;;5132337;27;20423;-71
2022/09/02 14:09:45;;;;;;;1.23;1.23;;;;;;;;;;5130138;27;20469;-71
2022/09/02 14:12:12;;;;;;;1.50;1.40;;;;;;;;;;5111797;27;20412;-71
2022/09/02 14:14:40;;;;;;;1.37;1.00;;;;;;;;;;5131396;27;20427;-69
2022/09/02 14:17:20;;;;;;;0.97;0.97;;;;;;;;;;5132314;27;20414;-71
2022/09/02 14:19:47;;;;;;;1.30;1.20;;;;;;;;;;5130855;27;20489;-69
2022/09/02 14:22:29;;;;;;;1.50;1.50;;;;;;;;;;5131251;27;20436;-70
2022/09/02 14:24:55;;;;;;;1.53;1.40;;;;;;;;;;5131154;27;20438;-70
2022/09/02 14:27:22;;;;;;;1.40;1.37;;;;;;;;;;5132053;27;20427;-70
2022/09/02 14:29:52;;;;;;;1.37;1.37;;;;;;;;;;5131265;27;20435;-69
2022/09/02 14:32:23;;;;;;;0.90;0.90;;;;;;;;;;5130350;27;20430;-69
2022/09/02 14:34:49;;;;;;;1.40;1.40;;;;;;;;;;5112180;27;20490;-71
2022/09/02 14:37:20;;;;;;;3.30;1.50;;;;;;;;;;5130100;27;20779;-69
2022/09/02 14:40:03;;;;;;;1.40;1.40;;;;;;;;;;5131182;27;20958;-69
2022/09/02 14:42:29;;;;;;;1.53;1.50;;;;;;;;;;5130932;27;20971;-70
2022/09/02 14:44:58;;;;;;;1.97;1.87;;;;;;;;;;5131740;27;20449;-68
2022/09/02 14:47:24;;;;;;;1.67;1.67;;;;;;;;;;5131120;27;20435;-70
2022/09/02 14:49:52;;;;;;;1.60;1.60;;;;;;;;;;5130916;27;20462;-71
2022/09/02 14:52:32;;;;;;;1.23;1.23;;;;;;;;;;5130331;27;20427;-69
2022/09/02 14:54:58;;;;;;;1.57;1.57;;;;;;;;;;5131049;27;20475;-71
2022/09/02 14:57:34;;;;;;;1.87;1.37;;;;;;;;;;5131792;27;20829;-70